Time;durP1;ratioP1;P1;durP2;ratioP2;P2;SDS_P1;SDS_P2;PMS_P1;PMS_P2;Temp;Humidity;BMP_temperature;BMP_pressure;BME280_temperature;BME280_humidity;BME280_pressure;Samples;Min_cycle;Max_cycle;Signal;HPM_P1;HPM_P2
2022/03/25 00:01:58;;;;;;;64.50;34.72;;;0.10;99.90;;;;;;5050650;28;20045;-85
2022/03/25 00:04:25;;;;;;;60.75;35.47;;;0.10;99.90;;;;;;5055058;28;20051;-85
2022/03/25 00:06:52;;;;;;;60.90;34.83;;;0.10;99.90;;;;;;5053333;28;20123;-85
2022/03/25 00:09:18;;;;;;;59.88;34.25;;;-0.10;99.90;;;;;;5048833;28;20493;-85
2022/03/25 00:11:46;;;;;;;55.55;33.25;;;-0.20;99.90;;;;;;5055783;28;20520;-85
2022/03/25 00:14:14;;;;;;;57.85;34.05;;;-0.30;99.90;;;;;;5048165;28;20067;-85
2022/03/25 00:16:42;;;;;;;55.83;32.38;;;-0.50;99.90;;;;;;5055603;28;20049;-85
2022/03/25 00:19:09;;;;;;;66.57;36.28;;;-0.50;99.90;;;;;;5047427;28;20463;-85
2022/03/25 00:21:37;;;;;;;65.90;36.00;;;-0.50;99.90;;;;;;5055293;28;20049;-85
2022/03/25 00:24:04;;;;;;;62.92;34.90;;;-0.30;99.90;;;;;;5046448;28;20171;-85
2022/03/25 00:26:31;;;;;;;70.60;38.05;;;-0.40;99.90;;;;;;5058685;28;20517;-85
2022/03/25 00:28:58;;;;;;;64.40;34.15;;;-0.40;99.90;;;;;;5060904;28;20052;-85
2022/03/25 00:31:25;;;;;;;63.78;35.65;;;-0.50;99.90;;;;;;5049122;28;20049;-85
2022/03/25 00:33:52;;;;;;;71.90;38.90;;;-0.50;99.90;;;;;;5054398;28;20049;-85
2022/03/25 00:36:21;;;;;;;65.20;38.30;;;-0.50;99.90;;;;;;5055256;28;20409;-83
2022/03/25 00:38:48;;;;;;;66.32;34.55;;;-0.40;99.90;;;;;;5052334;28;20171;-85
2022/03/25 00:41:16;;;;;;;64.03;33.83;;;-0.40;99.90;;;;;;5047674;28;20056;-85
2022/03/25 00:43:46;;;;;;;60.78;35.30;;;-0.60;99.90;;;;;;5054532;28;20056;-85
2022/03/25 00:46:15;;;;;;;73.18;37.58;;;-0.60;99.90;;;;;;5055239;28;20045;-85
2022/03/25 00:48:44;;;;;;;65.13;37.58;;;-0.70;99.90;;;;;;5051421;28;20606;-85
2022/03/25 00:51:10;;;;;;;63.88;35.08;;;-0.60;99.90;;;;;;5046832;28;20049;-84
2022/03/25 00:53:37;;;;;;;65.28;36.33;;;-0.60;99.90;;;;;;5054105;28;20504;-85
2022/03/25 00:56:05;;;;;;;65.18;37.08;;;-0.60;99.90;;;;;;5046084;28;20083;-85
2022/03/25 00:58:32;;;;;;;62.88;35.65;;;-0.60;99.90;;;;;;5055211;28;20044;-85
2022/03/25 01:00:59;;;;;;;65.18;35.45;;;-0.60;99.90;;;;;;5054816;28;20535;-84
2022/03/25 01:03:26;;;;;;;70.40;36.92;;;-0.70;99.90;;;;;;5054130;28;20496;-85
2022/03/25 01:05:53;;;;;;;66.72;36.92;;;-0.80;99.90;;;;;;5055015;28;20055;-85
2022/03/25 01:08:20;;;;;;;69.93;38.35;;;-0.80;99.90;;;;;;5048054;28;20076;-85
2022/03/25 01:10:47;;;;;;;59.53;35.30;;;-0.70;99.90;;;;;;5054736;28;20052;-85
2022/03/25 01:13:14;;;;;;;60.22;36.45;;;-0.70;99.90;;;;;;5047198;28;20102;-84
2022/03/25 01:15:41;;;;;;;65.93;36.95;;;-0.80;99.90;;;;;;5053418;28;20049;-85
2022/03/25 01:18:08;;;;;;;70.60;38.00;;;-0.80;99.90;;;;;;5046287;28;20048;-85
2022/03/25 01:20:35;;;;;;;66.00;36.90;;;-0.70;99.90;;;;;;5054377;28;20568;-85
2022/03/25 01:23:02;;;;;;;64.82;36.45;;;-0.70;99.90;;;;;;5053614;28;20044;-85
2022/03/25 01:25:29;;;;;;;62.20;34.83;;;-0.70;99.90;;;;;;5054671;28;20099;-85
2022/03/25 01:27:56;;;;;;;64.80;36.17;;;-0.80;99.90;;;;;;5052784;28;20482;-86
2022/03/25 01:30:23;;;;;;;65.68;36.20;;;-0.90;99.90;;;;;;5047861;28;20049;-86
2022/03/25 01:32:50;;;;;;;62.63;36.08;;;-1.00;99.90;;;;;;5053369;28;20088;-85
2022/03/25 01:35:16;;;;;;;66.32;35.42;;;-1.10;99.90;;;;;;5047167;28;20448;-85
2022/03/25 01:37:43;;;;;;;67.35;36.88;;;-1.00;99.90;;;;;;5053949;28;20076;-85
2022/03/25 01:40:10;;;;;;;70.50;37.90;;;-1.10;99.90;;;;;;5046383;28;20099;-86
2022/03/25 01:42:41;;;;;;;70.00;36.40;;;-1.20;99.90;;;;;;5058897;28;20075;-87
2022/03/25 01:45:11;;;;;;;71.68;37.88;;;-1.40;99.90;;;;;;5060118;28;20053;-86
2022/03/25 01:47:39;;;;;;;75.35;38.72;;;-1.30;99.90;;;;;;5049859;28;20084;-86
2022/03/25 01:50:19;;;;;;;73.40;39.28;;;-1.30;99.90;;;;;;5054507;28;20055;-86
2022/03/25 01:52:46;;;;;;;71.55;39.30;;;-1.20;99.90;;;;;;5051004;28;20462;-86
2022/03/25 01:55:16;;;;;;;71.55;37.47;;;-1.10;99.90;;;;;;5054073;28;20051;-86
2022/03/25 01:57:44;;;;;;;74.70;39.83;;;-1.10;99.90;;;;;;5050263;28;20059;-86
2022/03/25 02:00:13;;;;;;;67.20;38.90;;;-1.10;99.90;;;;;;5045820;28;20052;-86
2022/03/25 02:02:40;;;;;;;68.30;38.05;;;-1.00;99.90;;;;;;5053629;28;20052;-86
2022/03/25 02:05:08;;;;;;;67.95;36.67;;;-1.20;99.90;;;;;;5045453;28;20053;-86
2022/03/25 02:07:35;;;;;;;68.18;38.35;;;-1.20;99.90;;;;;;5052822;28;20485;-86
2022/03/25 02:10:03;;;;;;;72.40;37.67;;;-1.30;99.90;;;;;;5052641;28;20489;-86
2022/03/25 02:12:29;;;;;;;72.50;38.00;;;-1.30;99.90;;;;;;5048235;28;20061;-87
2022/03/25 02:14:58;;;;;;;73.43;38.97;;;-1.50;99.90;;;;;;5052934;28;20102;-87
2022/03/25 02:17:25;;;;;;;71.97;39.67;;;-1.50;99.90;;;;;;5047688;28;20045;-87
2022/03/25 02:19:51;;;;;;;67.28;37.50;;;-1.50;99.90;;;;;;5052610;28;20051;-87
2022/03/25 02:22:18;;;;;;;71.32;37.22;;;-1.50;99.90;;;;;;5046304;28;20081;-87
2022/03/25 02:24:45;;;;;;;73.10;38.58;;;-1.50;99.90;;;;;;5053703;28;20045;-87
2022/03/25 02:27:12;;;;;;;73.72;37.75;;;-1.60;99.90;;;;;;5045497;28;20056;-87
2022/03/25 02:29:39;;;;;;;76.95;39.28;;;-1.60;99.90;;;;;;5052590;28;20049;-87
2022/03/25 02:32:06;;;;;;;79.25;40.25;;;-1.50;99.90;;;;;;5044823;28;20049;-88
2022/03/25 02:34:38;;;;;;;74.80;39.05;;;-1.40;99.90;;;;;;5052894;28;20048;-87
2022/03/25 02:37:06;;;;;;;79.20;39.72;;;-1.30;99.90;;;;;;5044652;28;20485;-87
2022/03/25 02:39:32;;;;;;;71.30;38.47;;;-1.30;99.90;;;;;;5053474;28;20124;-88
2022/03/25 02:42:00;;;;;;;85.50;39.92;;;-1.40;99.90;;;;;;5051873;28;20087;-88
2022/03/25 02:44:27;;;;;;;75.78;40.40;;;-1.40;99.90;;;;;;5047384;28;20576;-88
2022/03/25 02:46:54;;;;;;;80.15;38.95;;;-1.30;99.90;;;;;;5052324;28;20061;-88
2022/03/25 02:49:21;;;;;;;73.43;38.17;;;-1.50;99.90;;;;;;5046611;28;20068;-88
2022/03/25 02:51:48;;;;;;;67.68;38.63;;;-1.60;99.90;;;;;;5052306;28;20075;-88
2022/03/25 02:54:15;;;;;;;86.50;42.70;;;-1.70;99.90;;;;;;5045982;28;20045;-88
2022/03/25 02:56:41;;;;;;;88.15;41.15;;;-1.60;99.90;;;;;;5052713;28;20563;-88
2022/03/25 02:59:08;;;;;;;76.45;37.78;;;-1.60;99.90;;;;;;5054281;28;20101;-88
2022/03/25 03:01:37;;;;;;;71.18;37.20;;;-1.70;99.90;;;;;;5054319;28;20060;-88
2022/03/25 03:04:03;;;;;;;71.80;37.58;;;-1.70;99.90;;;;;;5052216;28;20052;-88
2022/03/25 03:06:30;;;;;;;73.57;38.75;;;-1.70;99.90;;;;;;5051911;28;20103;-88
2022/03/25 03:08:57;;;;;;;77.55;39.40;;;-1.70;99.90;;;;;;5051993;28;20128;-88
2022/03/25 03:11:24;;;;;;;79.47;40.55;;;-1.90;99.90;;;;;;5046523;28;20049;-89
2022/03/25 03:13:51;;;;;;;77.07;40.78;;;-1.90;99.90;;;;;;5052244;28;20458;-88
2022/03/25 03:16:19;;;;;;;77.72;41.20;;;-1.80;99.90;;;;;;5046248;28;20057;-89
2022/03/25 03:18:46;;;;;;;80.47;40.70;;;-1.80;99.90;;;;;;5052013;28;20059;-89
2022/03/25 03:21:12;;;;;;;79.70;39.78;;;-1.90;99.90;;;;;;5044975;28;20048;-89
2022/03/25 03:23:39;;;;;;;80.32;39.60;;;-2.00;99.90;;;;;;5052059;28;20577;-89
2022/03/25 03:26:06;;;;;;;86.50;41.40;;;-2.10;99.90;;;;;;5044683;28;20049;-89
2022/03/25 03:28:34;;;;;;;84.20;40.85;;;-2.00;99.90;;;;;;5052007;28;20045;-89
2022/03/25 03:31:01;;;;;;;89.95;42.97;;;-2.10;99.90;;;;;;5051738;28;20048;-90
2022/03/25 03:33:27;;;;;;;78.72;40.80;;;-2.10;99.90;;;;;;5047078;28;20044;-89
2022/03/25 03:35:54;;;;;;;81.63;41.75;;;-2.10;99.90;;;;;;5051831;28;20123;-89
2022/03/25 03:38:21;;;;;;;82.32;41.28;;;-2.00;99.90;;;;;;5047183;28;20060;-89
2022/03/25 03:40:48;;;;;;;85.95;42.20;;;-2.10;99.90;;;;;;5055601;28;20045;-89
2022/03/25 03:43:15;;;;;;;91.15;42.08;;;-2.20;99.90;;;;;;5049059;28;20148;-90
2022/03/25 03:45:41;;;;;;;86.57;44.85;;;-2.20;99.90;;;;;;5055562;28;20045;-90
2022/03/25 03:48:08;;;;;;;91.22;43.47;;;-2.10;99.90;;;;;;5051548;28;20497;-89
2022/03/25 03:50:35;;;;;;;81.60;41.90;;;-2.00;99.90;;;;;;5055294;28;20494;-90
2022/03/25 03:53:02;;;;;;;89.55;43.00;;;-2.10;99.90;;;;;;5058932;28;20052;-89
2022/03/25 03:55:30;;;;;;;79.57;40.05;;;;;;;;;;5058991;28;20521;-90
2022/03/25 03:57:57;;;;;;;83.32;41.47;;;-2.20;99.90;;;;;;5059015;28;20052;-90
2022/03/25 04:00:27;;;;;;;90.72;43.50;;;-2.20;99.90;;;;;;5058353;28;20049;-90
2022/03/25 04:02:55;;;;;;;84.25;43.65;;;-2.10;99.90;;;;;;5058794;28;20082;-90
2022/03/25 04:05:22;;;;;;;78.50;40.83;;;-2.00;99.90;;;;;;5058845;28;20073;-90
2022/03/25 04:07:49;;;;;;;88.93;42.30;;;-2.10;99.90;;;;;;5058902;28;20465;-90
2022/03/25 04:10:18;;;;;;;87.22;41.88;;;-2.10;99.90;;;;;;5058742;28;20075;-91
2022/03/25 04:12:45;;;;;;;95.15;44.10;;;-2.20;99.90;;;;;;5059343;28;20131;-91
2022/03/25 04:15:13;;;;;;;84.90;44.55;;;-2.20;99.90;;;;;;5070322;28;20112;-90
2022/03/25 04:17:41;;;;;;;89.68;45.63;;;-2.10;99.90;;;;;;5059307;28;20522;-90
2022/03/25 04:20:10;;;;;;;90.38;46.67;;;-2.10;99.90;;;;;;5058509;28;20560;-90
2022/03/25 04:22:37;;;;;;;90.45;43.88;;;-2.10;99.90;;;;;;5058153;28;20052;-90
2022/03/25 04:25:06;;;;;;;80.55;42.22;;;-2.10;99.90;;;;;;5058739;28;20048;-91
2022/03/25 04:27:33;;;;;;;92.63;43.97;;;-2.10;99.90;;;;;;5058339;28;20135;-91
2022/03/25 04:30:00;;;;;;;85.00;41.97;;;-2.10;99.90;;;;;;5058436;28;20052;-91
2022/03/25 04:32:28;;;;;;;84.22;41.97;;;-2.20;99.90;;;;;;5058527;28;20053;-91
2022/03/25 04:34:54;;;;;;;83.80;42.78;;;-2.20;99.90;;;;;;5058416;28;20052;-91
2022/03/25 04:37:21;;;;;;;83.88;42.13;;;-2.30;99.90;;;;;;5058654;28;20496;-91
2022/03/25 04:39:48;;;;;;;91.93;42.10;;;-2.30;99.90;;;;;;5058329;28;20485;-91
2022/03/25 04:42:14;;;;;;;78.68;41.55;;;-2.40;99.90;;;;;;5057934;28;20044;-91
2022/03/25 04:44:41;;;;;;;83.45;41.83;;;-2.40;99.90;;;;;;5058267;28;20044;-91
2022/03/25 04:47:08;;;;;;;82.43;40.13;;;-2.40;99.90;;;;;;5058189;28;20135;-91
2022/03/25 04:49:35;;;;;;;91.53;42.92;;;-2.50;99.90;;;;;;5058374;28;20469;-91
2022/03/25 04:52:03;;;;;;;86.22;42.13;;;-2.50;99.90;;;;;;5058451;28;20052;-91
2022/03/25 04:54:29;;;;;;;84.50;41.85;;;-2.50;99.90;;;;;;5075996;28;20106;-91
2022/03/25 04:56:56;;;;;;;96.05;45.05;;;-2.60;99.90;;;;;;5076360;28;20158;-91
2022/03/25 04:59:23;;;;;;;103.18;47.58;;;-2.60;99.90;;;;;;5058453;28;20052;-91
2022/03/25 05:01:50;;;;;;;86.47;43.03;;;-2.70;99.90;;;;;;5058918;28;20110;-91
2022/03/25 05:04:17;;;;;;;99.93;43.70;;;-2.70;99.90;;;;;;5058583;28;20052;-92
2022/03/25 05:06:43;;;;;;;94.18;45.10;;;-2.60;99.90;;;;;;5058200;28;20048;-91
2022/03/25 05:09:10;;;;;;;104.38;46.75;;;-2.60;99.90;;;;;;5057748;28;20059;-91
2022/03/25 05:11:37;;;;;;;95.18;44.55;;;-2.60;99.90;;;;;;5058113;28;20052;-92
2022/03/25 05:14:04;;;;;;;100.57;46.22;;;-2.50;99.90;;;;;;5057886;28;20087;-92
2022/03/25 05:16:31;;;;;;;96.40;45.50;;;-2.40;99.90;;;;;;5057600;28;20488;-91
2022/03/25 05:18:58;;;;;;;88.38;43.05;;;-2.40;99.90;;;;;;5056957;28;20053;-92
2022/03/25 05:21:25;;;;;;;95.40;44.33;;;-2.50;99.90;;;;;;5057200;28;20044;-91
2022/03/25 05:23:52;;;;;;;93.95;45.15;;;-2.50;99.90;;;;;;5057240;28;20416;-92
2022/03/25 05:26:20;;;;;;;98.88;46.25;;;-2.40;99.90;;;;;;5074779;28;20045;-92
2022/03/25 05:28:48;;;;;;;102.10;47.65;;;-2.30;99.90;;;;;;5059024;28;20569;-91
2022/03/25 05:31:15;;;;;;;91.30;45.25;;;-2.20;99.90;;;;;;5068044;28;20049;-92
2022/03/25 05:33:42;;;;;;;98.05;45.72;;;-2.10;99.90;;;;;;5074944;28;20405;-92
2022/03/25 05:36:09;;;;;;;100.68;47.25;;;-2.20;99.90;;;;;;5074852;28;20052;-91
2022/03/25 05:38:36;;;;;;;101.28;47.85;;;-2.20;99.90;;;;;;5056946;28;20052;-92
2022/03/25 05:41:03;;;;;;;102.50;48.17;;;-2.20;99.90;;;;;;5056705;28;20135;-92
2022/03/25 05:43:30;;;;;;;120.45;53.20;;;-2.20;99.90;;;;;;5056889;28;20048;-91
2022/03/25 05:45:56;;;;;;;103.93;48.80;;;-2.20;99.90;;;;;;5056944;28;20059;-91
2022/03/25 05:48:23;;;;;;;110.95;51.25;;;-2.10;99.90;;;;;;5056483;28;20064;-91
2022/03/25 05:50:51;;;;;;;107.80;51.75;;;-2.00;99.90;;;;;;5056619;28;20051;-92
2022/03/25 05:53:17;;;;;;;116.43;52.80;;;-1.90;99.90;;;;;;5056514;28;20056;-92
2022/03/25 05:55:44;;;;;;;113.57;52.13;;;-1.90;99.90;;;;;;5056862;28;20109;-92
2022/03/25 05:58:11;;;;;;;124.65;54.38;;;-1.80;99.90;;;;;;5056954;28;20052;-92
2022/03/25 06:00:38;;;;;;;112.80;53.30;;;-1.80;99.90;;;;;;5055939;28;20135;-92
2022/03/25 06:03:05;;;;;;;116.68;53.95;;;-1.70;99.90;;;;;;5055819;28;20106;-91
2022/03/25 06:05:33;;;;;;;118.22;52.03;;;-1.70;99.90;;;;;;5056548;28;20053;-91
2022/03/25 06:07:59;;;;;;;124.35;54.83;;;-1.50;99.90;;;;;;5056427;28;20052;-92
2022/03/25 06:10:26;;;;;;;120.95;56.90;;;-1.40;99.90;;;;;;5056366;28;20091;-91
2022/03/25 06:12:53;;;;;;;135.20;58.70;;;-1.30;99.90;;;;;;5056447;28;20075;-91
2022/03/25 06:15:19;;;;;;;120.60;54.42;;;-1.10;99.90;;;;;;5056564;28;20049;-91
2022/03/25 06:17:48;;;;;;;122.75;56.45;;;-1.00;99.90;;;;;;5056140;28;20048;-92
2022/03/25 06:20:23;;;;;;;128.45;57.22;;;-0.90;99.90;;;;;;5073210;28;20052;-91
2022/03/25 06:22:50;;;;;;;121.38;57.10;;;-0.70;99.90;;;;;;5047367;28;20040;-91
2022/03/25 06:25:18;;;;;;;136.82;63.70;;;-0.50;99.90;;;;;;5056324;28;20473;-91
2022/03/25 06:28:05;;;;;;;127.68;61.85;;;-0.30;99.90;;;;;;5056287;28;20139;-90
2022/03/25 06:30:35;;;;;;;115.97;58.65;;;0.30;99.90;;;;;;5072489;28;20499;-89
2022/03/25 06:33:09;;;;;;;103.43;56.03;;;0.70;99.90;;;;;;5056124;28;20515;-90
2022/03/25 06:35:36;;;;;;;;;;;1.20;99.90;;;;;;5056490;28;20067;-89
2022/03/25 06:38:04;;;;;;;69.75;39.67;;;1.60;99.90;;;;;;5055852;28;20003;-89
2022/03/25 06:40:32;;;;;;;57.20;34.45;;;1.80;99.90;;;;;;5055910;28;20139;-89
2022/03/25 06:42:59;;;;;;;56.13;33.13;;;2.10;99.90;;;;;;5047126;28;20078;-88
2022/03/25 06:45:28;;;;;;;54.95;32.85;;;2.50;99.90;;;;;;5073654;28;20056;-87
2022/03/25 06:47:55;;;;;;;56.15;32.65;;;2.60;99.90;;;;;;5074196;28;20059;-88
2022/03/25 06:50:24;;;;;;;68.50;33.20;;;2.80;99.90;;;;;;5035897;28;20076;-88
2022/03/25 06:52:51;;;;;;;58.08;33.08;;;3.10;99.90;;;;;;5035890;28;20131;-88
2022/03/25 06:55:19;;;;;;;50.40;30.63;;;3.20;99.90;;;;;;5035714;28;20075;-88
2022/03/25 06:57:48;;;;;;;53.03;30.27;;;3.50;99.90;;;;;;5045294;28;20053;-87
2022/03/25 07:00:17;;;;;;;55.10;29.65;;;3.80;99.90;;;;;;5049459;28;20523;-87
2022/03/25 07:02:44;;;;;;;59.60;32.28;;;4.00;99.90;;;;;;5049221;28;20443;-87
2022/03/25 07:05:13;;;;;;;50.63;30.15;;;4.30;99.90;;;;;;5053567;28;20140;-87
2022/03/25 07:07:41;;;;;;;51.15;28.60;;;4.60;99.90;;;;;;5045218;28;20049;-87
2022/03/25 07:10:10;;;;;;;53.45;29.02;;;4.70;99.90;;;;;;5035180;28;20472;-86
2022/03/25 07:12:39;;;;;;;46.13;28.63;;;4.90;99.90;;;;;;5035230;28;20115;-86
2022/03/25 07:15:07;;;;;;;47.83;28.30;;;5.00;99.90;;;;;;5039823;28;20084;-86
2022/03/25 07:17:37;;;;;;;72.80;30.23;;;5.00;99.90;;;;;;5048579;28;20048;-86
2022/03/25 07:20:05;;;;;;;51.85;28.63;;;5.10;99.90;;;;;;5066960;28;20545;-86
2022/03/25 07:22:33;;;;;;;76.90;31.58;;;5.50;99.90;;;;;;5075557;28;20090;-86
2022/03/25 07:25:00;;;;;;;55.97;30.23;;;5.70;99.90;;;;;;5074858;28;20059;-86
2022/03/25 07:27:27;;;;;;;62.70;30.08;;;6.20;99.90;;;;;;5066879;28;20488;-86
2022/03/25 07:29:53;;;;;;;65.35;30.70;;;6.50;99.90;;;;;;5038995;28;20052;-86
2022/03/25 07:32:20;;;;;;;72.55;31.40;;;7.40;99.90;;;;;;5056331;28;20060;-86
2022/03/25 07:34:47;;;;;;;56.38;28.80;;;8.20;99.90;;;;;;5042934;28;20052;-86
2022/03/25 07:37:14;;;;;;;54.05;28.67;;;9.40;99.90;;;;;;5056663;28;20514;-86
2022/03/25 07:39:42;;;;;;;198.55;103.57;;;10.00;99.90;;;;;;5056146;28;20092;-86
2022/03/25 07:42:08;;;;;;;59.28;30.83;;;10.80;99.40;;;;;;5041191;28;20090;-86
2022/03/25 07:44:37;;;;;;;89.65;33.63;;;11.60;97.40;;;;;;5057066;28;20055;-86
2022/03/25 07:47:04;;;;;;;70.55;31.73;;;11.40;95.90;;;;;;5055909;28;20132;-85
2022/03/25 07:49:34;;;;;;;79.43;31.58;;;12.90;93.00;;;;;;5068807;28;20127;-86
2022/03/25 07:52:04;;;;;;;48.60;28.63;;;13.90;87.10;;;;;;5061114;28;20542;-86
2022/03/25 07:54:31;;;;;;;48.80;28.55;;;14.70;82.80;;;;;;5071161;28;20509;-85
2022/03/25 07:56:58;;;;;;;67.10;29.20;;;14.30;80.70;;;;;;5046564;28;20496;-85
2022/03/25 07:59:26;;;;;;;59.72;29.73;;;14.60;78.60;;;;;;5057769;28;20079;-86
2022/03/25 08:01:54;;;;;;;50.00;30.15;;;15.30;77.90;;;;;;5065772;28;20044;-86
2022/03/25 08:04:24;;;;;;;62.40;28.73;;;16.60;74.40;;;;;;5058140;28;20381;-86
2022/03/25 08:06:51;;;;;;;188.48;37.60;;;16.60;70.50;;;;;;5058711;28;20040;-86
2022/03/25 08:09:18;;;;;;;70.65;29.10;;;17.30;69.70;;;;;;5058585;28;20051;-87
2022/03/25 08:11:45;;;;;;;62.13;28.67;;;17.50;67.30;;;;;;5058589;28;20048;-87
2022/03/25 08:14:13;;;;;;;74.78;31.35;;;18.20;67.30;;;;;;5058177;28;20091;-86
2022/03/25 08:16:42;;;;;;;60.03;29.10;;;17.50;64.70;;;;;;5074806;28;20135;-86
2022/03/25 08:19:09;;;;;;;57.15;27.58;;;16.60;65.40;;;;;;5075678;28;20052;-86
2022/03/25 08:21:35;;;;;;;53.78;29.10;;;17.30;65.80;;;;;;5066860;28;20049;-87
2022/03/25 08:29:35;;;;;;;56.35;29.17;;;20.30;58.20;;;;;;5075459;28;20102;-87
2022/03/25 08:32:03;;;;;;;93.18;32.63;;;19.80;57.90;;;;;;5057672;28;20127;-86
2022/03/25 08:34:30;;;;;;;72.60;29.38;;;19.20;58.30;;;;;;5075706;28;20056;-86
2022/03/25 08:36:57;;;;;;;53.90;29.70;;;18.30;58.60;;;;;;5058053;28;20050;-86
2022/03/25 08:39:24;;;;;;;51.78;29.67;;;17.80;59.90;;;;;;5057817;28;20056;-87
2022/03/25 08:41:51;;;;;;;59.60;31.30;;;18.30;59.40;;;;;;5074980;28;20048;-87
2022/03/25 08:44:18;;;;;;;48.38;29.20;;;18.00;59.50;;;;;;5057710;28;20053;-87
2022/03/25 08:46:45;;;;;;;54.88;28.55;;;17.60;60.10;;;;;;5057726;28;20139;-86
2022/03/25 08:49:12;;;;;;;54.05;29.17;;;17.30;61.30;;;;;;5075724;28;20048;-87
2022/03/25 08:51:39;;;;;;;45.55;28.05;;;17.60;62.00;;;;;;5056937;28;20051;-87
2022/03/25 08:54:08;;;;;;;49.55;27.85;;;18.20;61.80;;;;;;5075139;28;20449;-86
2022/03/25 08:56:35;;;;;;;49.88;28.15;;;19.50;59.30;;;;;;5074202;28;20156;-87
2022/03/25 08:59:02;;;;;;;44.15;27.35;;;19.40;57.70;;;;;;5057544;28;20044;-87
2022/03/25 09:01:29;;;;;;;38.03;26.05;;;18.80;58.10;;;;;;5057378;28;20044;-87
2022/03/25 09:03:56;;;;;;;43.83;26.80;;;18.70;57.70;;;;;;5057471;28;20564;-86
2022/03/25 09:06:23;;;;;;;42.47;25.80;;;18.80;57.10;;;;;;5057390;28;20102;-87
2022/03/25 09:08:51;;;;;;;40.65;25.67;;;18.80;56.60;;;;;;5057334;28;20479;-87
2022/03/25 09:11:18;;;;;;;41.20;26.55;;;19.10;55.40;;;;;;5057132;28;20135;-87
2022/03/25 09:13:45;;;;;;;41.72;25.80;;;18.50;56.00;;;;;;5075065;28;20080;-87
2022/03/25 09:16:13;;;;;;;38.28;26.52;;;18.30;57.90;;;;;;5057581;28;20059;-87
2022/03/25 09:18:40;;;;;;;42.88;26.50;;;19.50;56.50;;;;;;5074674;28;20055;-84
2022/03/25 09:21:07;;;;;;;40.17;26.67;;;19.50;55.50;;;;;;5056455;28;20040;-84
2022/03/25 09:23:34;;;;;;;42.50;25.75;;;19.80;54.20;;;;;;5058831;28;20508;-85
2022/03/25 09:26:01;;;;;;;38.92;27.77;;;20.00;55.00;;;;;;5056797;28;20400;-85
2022/03/25 09:28:28;;;;;;;39.88;26.60;;;20.30;55.10;;;;;;5056887;28;20056;-85
2022/03/25 09:30:55;;;;;;;41.35;26.45;;;20.10;55.20;;;;;;5074589;28;20413;-85
2022/03/25 09:33:22;;;;;;;41.45;27.30;;;20.70;54.10;;;;;;5074287;28;20507;-84
2022/03/25 09:35:49;;;;;;;42.55;27.55;;;20.30;54.50;;;;;;5055031;28;20051;-85
2022/03/25 09:38:16;;;;;;;40.17;26.40;;;21.10;54.20;;;;;;5056823;28;20465;-85
2022/03/25 09:40:45;;;;;;;38.33;27.30;;;21.00;54.50;;;;;;5074220;28;20519;-85
2022/03/25 09:43:12;;;;;;;41.20;26.83;;;21.40;51.90;;;;;;5056755;28;20137;-85
2022/03/25 09:45:39;;;;;;;38.60;26.23;;;20.60;53.20;;;;;;5056715;28;20418;-85
2022/03/25 09:48:06;;;;;;;42.88;27.42;;;22.50;51.30;;;;;;5053007;28;20052;-85
2022/03/25 09:50:36;;;;;;;37.83;27.23;;;22.80;50.60;;;;;;5045264;28;20044;-85
2022/03/25 09:53:05;;;;;;;45.55;27.10;;;22.70;49.20;;;;;;5052010;28;20084;-86
2022/03/25 09:55:44;;;;;;;39.25;26.65;;;22.70;49.60;;;;;;5074151;28;20048;-86
2022/03/25 09:58:18;;;;;;;35.15;26.17;;;24.10;48.90;;;;;;5056963;28;20048;-86
2022/03/25 10:00:52;;;;;;;36.65;26.27;;;23.90;47.40;;;;;;5056664;28;20048;-85
2022/03/25 10:03:31;;;;;;;38.50;26.80;;;23.40;48.20;;;;;;5056851;28;20105;-85
2022/03/25 10:06:01;;;;;;;41.33;27.52;;;23.50;48.20;;;;;;5056564;28;20053;-86
2022/03/25 10:08:40;;;;;;;38.30;28.58;;;22.80;48.90;;;;;;5074129;28;20052;-86
2022/03/25 10:11:27;;;;;;;41.35;25.42;;;22.50;49.50;;;;;;5056186;28;20080;-88
2022/03/25 10:14:15;;;;;;;35.38;26.17;;;22.00;50.50;;;;;;5073919;28;20057;-87
2022/03/25 10:16:45;;;;;;;37.97;25.23;;;22.00;51.10;;;;;;5056431;28;20445;-87
2022/03/25 10:19:16;;;;;;;39.28;26.88;;;22.60;51.10;;;;;;5056363;28;20051;-87
2022/03/25 10:21:53;;;;;;;44.58;27.83;;;24.20;49.70;;;;;;5056067;28;20101;-88
2022/03/25 10:24:44;;;;;;;38.25;26.70;;;23.70;47.20;;;;;;5056012;28;20063;-87
2022/03/25 10:27:22;;;;;;;37.90;26.98;;;24.80;48.80;;;;;;5056712;28;20131;-88
2022/03/25 10:29:55;;;;;;;40.75;26.85;;;24.20;49.40;;;;;;5073976;28;20096;-88
2022/03/25 10:32:27;;;;;;;40.17;27.55;;;24.10;46.50;;;;;;5078949;28;20059;-87
2022/03/25 10:35:08;;;;;;;37.95;26.98;;;22.20;48.20;;;;;;5075102;28;20139;-87
2022/03/25 10:37:53;;;;;;;39.10;27.45;;;21.70;49.20;;;;;;5056203;28;20094;-87
2022/03/25 10:40:20;;;;;;;42.42;27.90;;;22.40;50.00;;;;;;5055794;28;20052;-87
2022/03/25 10:43:08;;;;;;;37.70;25.27;;;22.00;50.70;;;;;;5055828;28;20056;-89
2022/03/25 10:45:41;;;;;;;38.28;26.00;;;23.10;49.10;;;;;;5055981;28;20048;-88
2022/03/25 10:48:21;;;;;;;51.35;26.02;;;22.40;48.10;;;;;;5073468;28;20137;-88
2022/03/25 10:50:57;;;;;;;37.85;26.48;;;22.50;47.50;;;;;;5056729;28;20085;-93
2022/03/25 10:53:27;;;;;;;48.92;26.95;;;21.90;48.00;;;;;;5073940;28;20120;-88
2022/03/25 10:56:06;;;;;;;37.47;24.80;;;22.20;48.50;;;;;;5056695;28;20083;-87
2022/03/25 10:58:34;;;;;;;36.10;25.38;;;22.90;46.70;;;;;;5073545;28;20089;-87
2022/03/25 11:01:02;;;;;;;42.17;26.38;;;23.70;46.60;;;;;;5056053;28;20054;-88
2022/03/25 11:03:29;;;;;;;31.98;22.88;;;23.20;45.10;;;;;;5073442;28;20099;-89
2022/03/25 11:05:57;;;;;;;49.03;26.15;;;23.10;45.60;;;;;;5055105;28;20047;-88
2022/03/25 11:08:24;;;;;;;43.20;25.08;;;22.80;45.20;;;;;;5054061;28;20136;-90
2022/03/25 11:10:53;;;;;;;34.80;24.13;;;22.90;45.20;;;;;;5054244;28;20623;-88
2022/03/25 11:13:22;;;;;;;33.30;22.92;;;22.90;46.00;;;;;;5071969;28;20044;-88
2022/03/25 11:15:53;;;;;;;33.67;22.63;;;23.00;45.80;;;;;;5054232;28;20044;-88
2022/03/25 11:18:21;;;;;;;39.70;25.00;;;23.50;44.40;;;;;;5054182;28;20080;-88
2022/03/25 11:20:51;;;;;;;39.20;23.77;;;24.10;45.30;;;;;;5055732;28;20074;-89
2022/03/25 11:23:24;;;;;;;37.75;23.83;;;26.10;44.60;;;;;;5073354;28;20077;-87
2022/03/25 11:25:53;;;;;;;;;;;25.30;42.20;;;;;;5056546;28;20054;-86
2022/03/25 11:28:29;;;;;;;34.92;23.10;;;25.60;41.90;;;;;;5055753;28;19920;-87
2022/03/25 11:31:01;;;;;;;43.17;25.48;;;25.20;41.20;;;;;;5056012;28;20408;-87
2022/03/25 11:33:28;;;;;;;35.90;25.48;;;23.40;44.10;;;;;;5055737;28;20109;-89
2022/03/25 11:36:16;;;;;;;39.08;25.95;;;23.80;45.10;;;;;;5073340;28;20043;-89
2022/03/25 11:38:43;;;;;;;43.08;27.23;;;24.00;43.90;;;;;;5054815;28;20057;-89
2022/03/25 11:41:27;;;;;;;41.17;26.05;;;23.10;44.80;;;;;;5054998;28;20047;-87
2022/03/25 11:44:14;;;;;;;36.28;25.50;;;23.90;45.20;;;;;;5055528;28;20055;-87
2022/03/25 11:46:59;;;;;;;35.38;25.00;;;25.40;44.70;;;;;;5056384;28;20394;-88
2022/03/25 11:49:30;;;;;;;33.80;25.63;;;26.20;42.50;;;;;;5076234;28;20139;-88
2022/03/25 11:52:18;;;;;;;37.50;25.83;;;25.40;40.60;;;;;;5055284;28;20131;-87
2022/03/25 11:54:45;;;;;;;34.55;26.90;;;24.00;42.80;;;;;;5054984;28;20055;-87
2022/03/25 11:57:30;;;;;;;35.42;26.52;;;25.10;42.70;;;;;;5055367;28;20053;-87
2022/03/25 12:00:03;;;;;;;36.47;24.85;;;25.40;41.90;;;;;;5074544;28;20560;-87
2022/03/25 12:02:33;;;;;;;36.97;25.70;;;24.50;41.20;;;;;;5058694;28;20052;-87
2022/03/25 12:05:01;;;;;;;38.58;26.10;;;22.40;44.60;;;;;;5076530;28;20051;-87
2022/03/25 12:07:29;;;;;;;36.22;25.33;;;22.60;45.70;;;;;;5058649;28;20058;-88
2022/03/25 12:09:56;;;;;;;38.22;26.40;;;22.90;46.40;;;;;;5076247;28;20059;-87
2022/03/25 12:12:51;;;;;;;38.13;25.05;;;22.10;45.60;;;;;;5075751;28;20075;-87
2022/03/25 12:15:18;;;;;;;45.08;25.77;;;22.60;45.10;;;;;;5057566;28;20131;-87
2022/03/25 12:17:44;;;;;;;32.72;24.10;;;22.00;46.20;;;;;;5058127;28;20059;-86
2022/03/25 12:20:11;;;;;;;40.92;25.13;;;23.20;46.50;;;;;;5058498;28;20488;-87
2022/03/25 12:22:39;;;;;;;42.80;25.40;;;22.40;44.60;;;;;;5069465;28;20059;-88
2022/03/25 12:25:11;;;;;;;38.00;24.52;;;21.40;45.70;;;;;;5049848;28;20135;-87
2022/03/25 12:27:38;;;;;;;63.58;26.48;;;21.50;46.30;;;;;;5038806;28;20475;-89
2022/03/25 12:30:06;;;;;;;34.67;22.50;;;20.90;46.20;;;;;;5050394;28;20051;-87
2022/03/25 12:32:35;;;;;;;33.70;22.38;;;20.70;47.90;;;;;;5037930;28;20076;-86
2022/03/25 12:35:08;;;;;;;34.85;22.65;;;21.50;47.20;;;;;;5041378;28;20143;-87
2022/03/25 12:37:35;;;;;;;40.83;23.80;;;21.80;45.40;;;;;;5039114;28;20478;-90
2022/03/25 12:40:09;;;;;;;34.97;22.77;;;22.10;45.90;;;;;;5058626;28;20766;-88
2022/03/25 12:42:36;;;;;;;38.15;21.83;;;21.70;45.00;;;;;;5055416;28;20166;-88